sensor_id;sensor_type;location;lat;lon;timestamp;pressure;altitude;pressure_sealevel;temperature
72278;BMP280;61204;49.980;8.358;2023-04-03T00:00:06;101682.50;;;4.22
72278;BMP280;61204;49.980;8.358;2023-04-03T00:02:32;101686.69;;;4.23
72278;BMP280;61204;49.980;8.358;2023-04-03T00:04:58;101691.16;;;4.21
72278;BMP280;61204;49.980;8.358;2023-04-03T00:07:23;101682.28;;;4.20
72278;BMP280;61204;49.980;8.358;2023-04-03T00:09:49;101687.94;;;4.22
72278;BMP280;61204;49.980;8.358;2023-04-03T00:12:14;101680.31;;;4.21
72278;BMP280;61204;49.980;8.358;2023-04-03T00:14:40;101678.31;;;4.21
72278;BMP280;61204;49.980;8.358;2023-04-03T00:17:06;101678.56;;;4.23
72278;BMP280;61204;49.980;8.358;2023-04-03T00:19:31;101673.84;;;4.24
72278;BMP280;61204;49.980;8.358;2023-04-03T00:21:59;101678.81;;;4.25
72278;BMP280;61204;49.980;8.358;2023-04-03T00:24:25;101681.50;;;4.25
72278;BMP280;61204;49.980;8.358;2023-04-03T00:26:50;101678.81;;;4.25
72278;BMP280;61204;49.980;8.358;2023-04-03T00:29:18;101680.78;;;4.25
72278;BMP280;61204;49.980;8.358;2023-04-03T00:31:44;101683.72;;;4.27
72278;BMP280;61204;49.980;8.358;2023-04-03T00:34:10;101683.97;;;4.29
72278;BMP280;61204;49.980;8.358;2023-04-03T00:36:35;101687.94;;;4.28
72278;BMP280;61204;49.980;8.358;2023-04-03T00:39:01;101694.09;;;4.29
72278;BMP280;61204;49.980;8.358;2023-04-03T00:41:26;101684.19;;;4.31
72278;BMP280;61204;49.980;8.358;2023-04-03T00:43:52;101690.59;;;4.34
72278;BMP280;61204;49.980;8.358;2023-04-03T00:46:17;101689.59;;;4.37
72278;BMP280;61204;49.980;8.358;2023-04-03T00:48:46;101690.34;;;4.37
72278;BMP280;61204;49.980;8.358;2023-04-03T00:51:17;101687.13;;;4.39
72278;BMP280;61204;49.980;8.358;2023-04-03T00:56:19;101690.97;;;4.55
72278;BMP280;61204;49.980;8.358;2023-04-03T00:58:51;101687.28;;;4.52
72278;BMP280;61204;49.980;8.358;2023-04-03T01:01:28;101690.25;;;4.48
72278;BMP280;61204;49.980;8.358;2023-04-03T01:03:59;101692.00;;;4.46
72278;BMP280;61204;49.980;8.358;2023-04-03T01:06:28;101691.25;;;4.51
72278;BMP280;61204;49.980;8.358;2023-04-03T01:08:58;101682.75;;;4.60
72278;BMP280;61204;49.980;8.358;2023-04-03T01:11:32;101686.22;;;4.61
72278;BMP280;61204;49.980;8.358;2023-04-03T01:13:58;101690.16;;;4.60
72278;BMP280;61204;49.980;8.358;2023-04-03T01:16:23;101683.41;;;4.72
72278;BMP280;61204;49.980;8.358;2023-04-03T01:18:49;101680.94;;;4.74
72278;BMP280;61204;49.980;8.358;2023-04-03T01:24:16;101694.28;;;4.72
72278;BMP280;61204;49.980;8.358;2023-04-03T01:27:01;101689.53;;;4.78
72278;BMP280;61204;49.980;8.358;2023-04-03T01:29:34;101690.06;;;4.76
72278;BMP280;61204;49.980;8.358;2023-04-03T01:32:00;101685.13;;;4.75
72278;BMP280;61204;49.980;8.358;2023-04-03T01:34:28;101696.44;;;4.79
72278;BMP280;61204;49.980;8.358;2023-04-03T01:36:54;101690.50;;;4.81
72278;BMP280;61204;49.980;8.358;2023-04-03T01:39:20;101692.00;;;4.82
72278;BMP280;61204;49.980;8.358;2023-04-03T01:41:46;101689.75;;;4.80
72278;BMP280;61204;49.980;8.358;2023-04-03T01:44:13;101687.78;;;4.81
72278;BMP280;61204;49.980;8.358;2023-04-03T01:46:39;101692.47;;;4.86
72278;BMP280;61204;49.980;8.358;2023-04-03T01:49:04;101692.94;;;4.84
72278;BMP280;61204;49.980;8.358;2023-04-03T01:51:30;101689.75;;;4.80
72278;BMP280;61204;49.980;8.358;2023-04-03T01:53:56;101695.50;;;4.76
72278;BMP280;61204;49.980;8.358;2023-04-03T01:56:21;101689.31;;;4.76
72278;BMP280;61204;49.980;8.358;2023-04-03T01:58:47;101689.84;;;4.74
72278;BMP280;61204;49.980;8.358;2023-04-03T02:01:13;101688.28;;;4.79
72278;BMP280;61204;49.980;8.358;2023-04-03T02:03:38;101689.53;;;4.78
72278;BMP280;61204;49.980;8.358;2023-04-03T02:06:04;101684.09;;;4.78
72278;BMP280;61204;49.980;8.358;2023-04-03T02:08:30;101688.81;;;4.78
72278;BMP280;61204;49.980;8.358;2023-04-03T02:10:55;101690.75;;;4.83
72278;BMP280;61204;49.980;8.358;2023-04-03T02:13:21;101682.84;;;4.85
72278;BMP280;61204;49.980;8.358;2023-04-03T02:15:46;101683.56;;;4.85
72278;BMP280;61204;49.980;8.358;2023-04-03T02:18:13;101686.78;;;4.84
72278;BMP280;61204;49.980;8.358;2023-04-03T02:20:38;101689.28;;;4.82
72278;BMP280;61204;49.980;8.358;2023-04-03T02:23:04;101690.22;;;4.84
72278;BMP280;61204;49.980;8.358;2023-04-03T02:25:32;101686.78;;;4.84
72278;BMP280;61204;49.980;8.358;2023-04-03T02:27:58;101689.00;;;4.85
72278;BMP280;61204;49.980;8.358;2023-04-03T02:30:23;101696.19;;;4.83
72278;BMP280;61204;49.980;8.358;2023-04-03T02:32:49;101692.00;;;4.82
72278;BMP280;61204;49.980;8.358;2023-04-03T02:35:17;101683.31;;;4.83
72278;BMP280;61204;49.980;8.358;2023-04-03T02:37:43;101681.34;;;4.84
72278;BMP280;61204;49.980;8.358;2023-04-03T02:40:09;101685.03;;;4.86
72278;BMP280;61204;49.980;8.358;2023-04-03T02:42:36;101687.75;;;4.86
72278;BMP280;61204;49.980;8.358;2023-04-03T02:45:02;101679.09;;;4.88
72278;BMP280;61204;49.980;8.358;2023-04-03T02:47:28;101689.00;;;4.85
72278;BMP280;61204;49.980;8.358;2023-04-03T02:49:56;101689.19;;;4.93
72278;BMP280;61204;49.980;8.358;2023-04-03T02:52:24;101692.69;;;4.88
72278;BMP280;61204;49.980;8.358;2023-04-03T02:54:50;101689.41;;;4.95
72278;BMP280;61204;49.980;8.358;2023-04-03T02:57:15;101687.94;;;4.94
72278;BMP280;61204;49.980;8.358;2023-04-03T02:59:41;101690.13;;;4.95
72278;BMP280;61204;49.980;8.358;2023-04-03T03:02:07;101687.69;;;4.92
72278;BMP280;61204;49.980;8.358;2023-04-03T03:04:34;101691.66;;;4.91
72278;BMP280;61204;49.980;8.358;2023-04-03T03:06:59;101685.50;;;4.90
72278;BMP280;61204;49.980;8.358;2023-04-03T03:09:28;101685.25;;;4.88
72278;BMP280;61204;49.980;8.358;2023-04-03T03:11:54;101688.47;;;4.87
72278;BMP280;61204;49.980;8.358;2023-04-03T03:14:23;101682.31;;;4.86
72278;BMP280;61204;49.980;8.358;2023-04-03T03:16:49;101687.03;;;4.80
72278;BMP280;61204;49.980;8.358;2023-04-03T03:19:15;101682.34;;;4.81
72278;BMP280;61204;49.980;8.358;2023-04-03T03:21:40;101689.75;;;4.80
72278;BMP280;61204;49.980;8.358;2023-04-03T03:24:06;101686.81;;;4.78
72278;BMP280;61204;49.980;8.358;2023-04-03T03:26:34;101689.53;;;4.78
72278;BMP280;61204;49.980;8.358;2023-04-03T03:29:00;101687.78;;;4.81
72278;BMP280;61204;49.980;8.358;2023-04-03T03:31:28;101690.06;;;4.76
72278;BMP280;61204;49.980;8.358;2023-04-03T03:33:53;101693.81;;;4.73
72278;BMP280;61204;49.980;8.358;2023-04-03T03:36:21;101688.16;;;4.66
72278;BMP280;61204;49.980;8.358;2023-04-03T03:38:48;101691.63;;;4.66
72278;BMP280;61204;49.980;8.358;2023-04-03T03:41:14;101689.38;;;4.70
72278;BMP280;61204;49.980;8.358;2023-04-03T03:43:39;101686.91;;;4.67
72278;BMP280;61204;49.980;8.358;2023-04-03T03:46:05;101697.28;;;4.68
72278;BMP280;61204;49.980;8.358;2023-04-03T03:48:32;101696.06;;;4.64
72278;BMP280;61204;49.980;8.358;2023-04-03T03:51:01;101693.69;;;4.55
72278;BMP280;61204;49.980;8.358;2023-04-03T03:53:26;101700.16;;;4.46
72278;BMP280;61204;49.980;8.358;2023-04-03T03:55:51;101699.91;;;4.44
72278;BMP280;61204;49.980;8.358;2023-04-03T03:58:17;101697.75;;;4.37
72278;BMP280;61204;49.980;8.358;2023-04-03T04:00:45;101692.13;;;4.29
72278;BMP280;61204;49.980;8.358;2023-04-03T04:03:10;101700.53;;;4.25
72278;BMP280;61204;49.980;8.358;2023-04-03T04:05:36;101694.19;;;4.17
72278;BMP280;61204;49.980;8.358;2023-04-03T04:08:01;101697.88;;;4.14
72278;BMP280;61204;49.980;8.358;2023-04-03T04:10:26;101691.72;;;4.08
72278;BMP280;61204;49.980;8.358;2023-04-03T04:12:52;101693.97;;;4.04
72278;BMP280;61204;49.980;8.358;2023-04-03T04:15:18;101687.31;;;3.99
72278;BMP280;61204;49.980;8.358;2023-04-03T04:17:43;101692.25;;;4.01
72278;BMP280;61204;49.980;8.358;2023-04-03T04:20:09;101703.34;;;3.97
72278;BMP280;61204;49.980;8.358;2023-04-03T04:22:35;101698.91;;;4.00
72278;BMP280;61204;49.980;8.358;2023-04-03T04:25:01;101698.47;;;3.96
72278;BMP280;61204;49.980;8.358;2023-04-03T04:27:27;101710.06;;;3.96
72278;BMP280;61204;49.980;8.358;2023-04-03T04:29:54;101691.81;;;3.91
72278;BMP280;61204;49.980;8.358;2023-04-03T04:32:20;101701.94;;;3.85
72278;BMP280;61204;49.980;8.358;2023-04-03T04:34:45;101707.13;;;3.83
72278;BMP280;61204;49.980;8.358;2023-04-03T04:37:11;101700.72;;;3.81
72278;BMP280;61204;49.980;8.358;2023-04-03T04:39:36;101699.00;;;3.78
72278;BMP280;61204;49.980;8.358;2023-04-03T04:42:02;101703.69;;;3.77
72278;BMP280;61204;49.980;8.358;2023-04-03T04:44:28;101702.25;;;3.70
72278;BMP280;61204;49.980;8.358;2023-04-03T04:46:55;101701.03;;;3.66
72278;BMP280;61204;49.980;8.358;2023-04-03T04:49:21;101699.56;;;3.59
72278;BMP280;61204;49.980;8.358;2023-04-03T04:51:46;101706.00;;;3.56
72278;BMP280;61204;49.980;8.358;2023-04-03T04:54:12;101704.53;;;3.50
72278;BMP280;61204;49.980;8.358;2023-04-03T04:56:37;101708.75;;;3.45
72278;BMP280;61204;49.980;8.358;2023-04-03T04:59:02;101708.47;;;3.43
72278;BMP280;61204;49.980;8.358;2023-04-03T05:01:28;101714.16;;;3.39
72278;BMP280;61204;49.980;8.358;2023-04-03T05:03:56;101718.09;;;3.33
72278;BMP280;61204;49.980;8.358;2023-04-03T05:06:21;101715.13;;;3.25
72278;BMP280;61204;49.980;8.358;2023-04-03T05:08:49;101721.28;;;3.26
72278;BMP280;61204;49.980;8.358;2023-04-03T05:11:15;101718.88;;;3.22
72278;BMP280;61204;49.980;8.358;2023-04-03T05:13:42;101727.50;;;3.20
72278;BMP280;61204;49.980;8.358;2023-04-03T05:16:10;101721.56;;;3.16
72278;BMP280;61204;49.980;8.358;2023-04-03T05:18:36;101730.94;;;3.15
72278;BMP280;61204;49.980;8.358;2023-04-03T05:21:01;101724.53;;;3.13
72278;BMP280;61204;49.980;8.358;2023-04-03T05:23:27;101732.66;;;3.13
72278;BMP280;61204;49.980;8.358;2023-04-03T05:25:52;101728.72;;;3.14
72278;BMP280;61204;49.980;8.358;2023-04-03T05:28:18;101729.94;;;3.13
72278;BMP280;61204;49.980;8.358;2023-04-03T05:30:52;101733.88;;;3.06
72278;BMP280;61204;49.980;8.358;2023-04-03T05:33:22;101726.00;;;3.08
72278;BMP280;61204;49.980;8.358;2023-04-03T05:35:48;101731.16;;;3.06
72278;BMP280;61204;49.980;8.358;2023-04-03T05:38:16;101736.59;;;3.06
72278;BMP280;61204;49.980;8.358;2023-04-03T05:40:41;101736.84;;;3.08
72278;BMP280;61204;49.980;8.358;2023-04-03T05:43:09;101745.72;;;3.09
72278;BMP280;61204;49.980;8.358;2023-04-03T05:45:37;101744.50;;;3.15
72278;BMP280;61204;49.980;8.358;2023-04-03T05:48:02;101745.72;;;3.20
72278;BMP280;61204;49.980;8.358;2023-04-03T05:50:28;101752.63;;;3.21
72278;BMP280;61204;49.980;8.358;2023-04-03T05:52:55;101751.66;;;3.24
72278;BMP280;61204;49.980;8.358;2023-04-03T05:55:26;101755.78;;;3.25
72278;BMP280;61204;49.980;8.358;2023-04-03T05:57:51;101764.94;;;3.28
72278;BMP280;61204;49.980;8.358;2023-04-03T06:00:17;101765.69;;;3.34
72278;BMP280;61204;49.980;8.358;2023-04-03T06:02:43;101763.19;;;3.36
72278;BMP280;61204;49.980;8.358;2023-04-03T06:05:09;101764.94;;;3.39
72278;BMP280;61204;49.980;8.358;2023-04-03T06:07:36;101767.16;;;3.46
72278;BMP280;61204;49.980;8.358;2023-04-03T06:10:02;101780.47;;;3.50
72278;BMP280;61204;49.980;8.358;2023-04-03T06:12:29;101779.72;;;3.60
72278;BMP280;61204;49.980;8.358;2023-04-03T06:14:54;101782.41;;;3.60
72278;BMP280;61204;49.980;8.358;2023-04-03T06:17:20;101777.22;;;3.62
72278;BMP280;61204;49.980;8.358;2023-04-03T06:19:46;101791.00;;;3.76
72278;BMP280;61204;49.980;8.358;2023-04-03T06:22:11;101784.06;;;3.97
72278;BMP280;61204;49.980;8.358;2023-04-03T06:24:38;101797.25;;;4.34
72278;BMP280;61204;49.980;8.358;2023-04-03T06:27:04;101795.72;;;4.86
72278;BMP280;61204;49.980;8.358;2023-04-03T06:29:32;101802.94;;;5.13
72278;BMP280;61204;49.980;8.358;2023-04-03T06:31:57;101803.72;;;5.08
72278;BMP280;61204;49.980;8.358;2023-04-03T06:34:23;101801.22;;;5.40
72278;BMP280;61204;49.980;8.358;2023-04-03T06:36:48;101809.28;;;5.27
72278;BMP280;61204;49.980;8.358;2023-04-03T06:39:16;101806.84;;;5.18
72278;BMP280;61204;49.980;8.358;2023-04-03T06:41:50;101811.50;;;5.77
72278;BMP280;61204;49.980;8.358;2023-04-03T06:44:16;101821.44;;;5.94
72278;BMP280;61204;49.980;8.358;2023-04-03T06:46:42;101817.16;;;6.23
72278;BMP280;61204;49.980;8.358;2023-04-03T06:49:09;101821.44;;;5.75
72278;BMP280;61204;49.980;8.358;2023-04-03T06:51:35;101825.16;;;5.96
72278;BMP280;61204;49.980;8.358;2023-04-03T06:54:02;101823.84;;;6.03
72278;BMP280;61204;49.980;8.358;2023-04-03T06:56:30;101830.13;;;6.17
72278;BMP280;61204;49.980;8.358;2023-04-03T06:58:56;101831.53;;;6.42
72278;BMP280;61204;49.980;8.358;2023-04-03T07:01:23;101823.88;;;6.41
72278;BMP280;61204;49.980;8.358;2023-04-03T07:03:53;101830.34;;;6.38
72278;BMP280;61204;49.980;8.358;2023-04-03T07:06:19;101827.50;;;6.81
72278;BMP280;61204;49.980;8.358;2023-04-03T07:08:45;101832.41;;;6.69
72278;BMP280;61204;49.980;8.358;2023-04-03T07:11:12;101847.72;;;6.72
72278;BMP280;61204;49.980;8.358;2023-04-03T07:13:38;101838.47;;;6.94
72278;BMP280;61204;49.980;8.358;2023-04-03T07:16:04;101838.63;;;7.15
72278;BMP280;61204;49.980;8.358;2023-04-03T07:18:31;101846.19;;;7.09
72278;BMP280;61204;49.980;8.358;2023-04-03T07:20:57;101842.84;;;7.16
72278;BMP280;61204;49.980;8.358;2023-04-03T07:23:23;101847.19;;;7.38
72278;BMP280;61204;49.980;8.358;2023-04-03T07:25:50;101857.97;;;7.30
72278;BMP280;61204;49.980;8.358;2023-04-03T07:28:16;101865.50;;;7.11
72278;BMP280;61204;49.980;8.358;2023-04-03T07:30:46;101868.31;;;7.64
72278;BMP280;61204;49.980;8.358;2023-04-03T07:33:17;101869.06;;;7.78
72278;BMP280;61204;49.980;8.358;2023-04-03T07:35:45;101878.06;;;7.59
72278;BMP280;61204;49.980;8.358;2023-04-03T07:38:11;101868.97;;;7.70
72278;BMP280;61204;49.980;8.358;2023-04-03T07:40:37;101871.91;;;7.85
72278;BMP280;61204;49.980;8.358;2023-04-03T07:43:04;101871.88;;;8.12
72278;BMP280;61204;49.980;8.358;2023-04-03T07:45:30;101877.03;;;8.02
72278;BMP280;61204;49.980;8.358;2023-04-03T07:47:59;101877.78;;;7.63
72278;BMP280;61204;49.980;8.358;2023-04-03T07:50:25;101872.56;;;8.39
72278;BMP280;61204;49.980;8.358;2023-04-03T07:52:52;101882.59;;;8.57
72278;BMP280;61204;49.980;8.358;2023-04-03T07:55:19;101875.44;;;8.67
72278;BMP280;61204;49.980;8.358;2023-04-03T07:57:45;101880.22;;;8.54
72278;BMP280;61204;49.980;8.358;2023-04-03T08:00:11;101883.59;;;9.02
72278;BMP280;61204;49.980;8.358;2023-04-03T08:02:38;101885.94;;;8.97
72278;BMP280;61204;49.980;8.358;2023-04-03T08:05:04;101893.63;;;9.77
72278;BMP280;61204;49.980;8.358;2023-04-03T08:07:30;101892.59;;;8.89
72278;BMP280;61204;49.980;8.358;2023-04-03T08:09:55;101894.81;;;9.32
72278;BMP280;61204;49.980;8.358;2023-04-03T08:12:21;101886.66;;;8.43
72278;BMP280;61204;49.980;8.358;2023-04-03T08:14:46;101888.72;;;8.63
72278;BMP280;61204;49.980;8.358;2023-04-03T08:17:12;101894.81;;;9.61
72278;BMP280;61204;49.980;8.358;2023-04-03T08:19:38;101892.47;;;10.01
72278;BMP280;61204;49.980;8.358;2023-04-03T08:22:04;101897.38;;;9.38
72278;BMP280;61204;49.980;8.358;2023-04-03T08:24:31;101888.53;;;8.82
72278;BMP280;61204;49.980;8.358;2023-04-03T08:26:58;101895.53;;;8.91
72278;BMP280;61204;49.980;8.358;2023-04-03T08:29:24;101895.53;;;9.12
72278;BMP280;61204;49.980;8.358;2023-04-03T08:31:50;101893.19;;;9.65
72278;BMP280;61204;49.980;8.358;2023-04-03T08:34:16;101903.06;;;10.48
72278;BMP280;61204;49.980;8.358;2023-04-03T08:36:44;101892.72;;;10.18
72278;BMP280;61204;49.980;8.358;2023-04-03T08:39:10;101877.59;;;9.24
72278;BMP280;61204;49.980;8.358;2023-04-03T08:41:38;101882.50;;;10.19
72278;BMP280;61204;49.980;8.358;2023-04-03T08:46:53;101883.84;;;9.61
72278;BMP280;61204;49.980;8.358;2023-04-03T08:49:42;101884.22;;;10.52
72278;BMP280;61204;49.980;8.358;2023-04-03T08:52:15;101882.63;;;11.10
72278;BMP280;61204;49.980;8.358;2023-04-03T08:54:49;101881.34;;;10.81
72278;BMP280;61204;49.980;8.358;2023-04-03T08:57:35;101881.75;;;10.18
72278;BMP280;61204;49.980;8.358;2023-04-03T09:00:15;101890.66;;;11.01
72278;BMP280;61204;49.980;8.358;2023-04-03T09:02:47;101880.44;;;10.94
72278;BMP280;61204;49.980;8.358;2023-04-03T09:08:27;101880.91;;;11.38
72278;BMP280;61204;49.980;8.358;2023-04-03T09:20:43;101880.09;;;11.05
72278;BMP280;61204;49.980;8.358;2023-04-03T09:26:09;101883.38;;;10.14
72278;BMP280;61204;49.980;8.358;2023-04-03T09:28:41;101883.56;;;10.16
72278;BMP280;61204;49.980;8.358;2023-04-03T09:31:21;101881.13;;;11.40
72278;BMP280;61204;49.980;8.358;2023-04-03T09:33:51;101879.69;;;11.31
72278;BMP280;61204;49.980;8.358;2023-04-03T09:36:47;101865.22;;;10.85
72278;BMP280;61204;49.980;8.358;2023-04-03T09:39:28;101867.31;;;9.74
72278;BMP280;61204;49.980;8.358;2023-04-03T09:42:21;101873.03;;;8.85
72278;BMP280;61204;49.980;8.358;2023-04-03T09:44:54;101879.03;;;9.25
72278;BMP280;61204;49.980;8.358;2023-04-03T09:47:27;101865.25;;;9.10
72278;BMP280;61204;49.980;8.358;2023-04-03T09:50:20;101856.41;;;9.89
72278;BMP280;61204;49.980;8.358;2023-04-03T09:52:49;101865.50;;;10.28
72278;BMP280;61204;49.980;8.358;2023-04-03T09:55:17;101862.06;;;9.91
72278;BMP280;61204;49.980;8.358;2023-04-03T09:58:00;101866.91;;;10.06
72278;BMP280;61204;49.980;8.358;2023-04-03T10:03:05;101867.31;;;9.45
72278;BMP280;61204;49.980;8.358;2023-04-03T10:05:54;101868.34;;;9.63
72278;BMP280;61204;49.980;8.358;2023-04-03T10:08:24;101867.91;;;9.80
72278;BMP280;61204;49.980;8.358;2023-04-03T10:13:50;101862.28;;;9.93
72278;BMP280;61204;49.980;8.358;2023-04-03T10:16:48;101859.69;;;8.81
72278;BMP280;61204;49.980;8.358;2023-04-03T10:22:00;101854.03;;;9.00
72278;BMP280;61204;49.980;8.358;2023-04-03T10:25:10;101869.44;;;9.60
72278;BMP280;61204;49.980;8.358;2023-04-03T10:28:11;101861.19;;;10.55
72278;BMP280;61204;49.980;8.358;2023-04-03T10:31:05;101860.88;;;10.07
72278;BMP280;61204;49.980;8.358;2023-04-03T10:50:58;101850.66;;;9.36
72278;BMP280;61204;49.980;8.358;2023-04-03T10:53:51;101847.59;;;9.75
72278;BMP280;61204;49.980;8.358;2023-04-03T10:59:28;101852.25;;;9.60
72278;BMP280;61204;49.980;8.358;2023-04-03T11:02:23;101839.00;;;9.14
72278;BMP280;61204;49.980;8.358;2023-04-03T11:05:13;101842.38;;;9.57
72278;BMP280;61204;49.980;8.358;2023-04-03T11:08:02;101849.56;;;10.03
72278;BMP280;61204;49.980;8.358;2023-04-03T11:15:58;101827.78;;;11.98
72278;BMP280;61204;49.980;8.358;2023-04-03T11:18:26;101825.88;;;11.28
72278;BMP280;61204;49.980;8.358;2023-04-03T11:21:12;101833.94;;;12.07
72278;BMP280;61204;49.980;8.358;2023-04-03T11:23:47;101826.53;;;11.44
72278;BMP280;61204;49.980;8.358;2023-04-03T11:26:15;101828.16;;;11.95
72278;BMP280;61204;49.980;8.358;2023-04-03T11:28:43;101821.69;;;11.12
72278;BMP280;61204;49.980;8.358;2023-04-03T11:37:13;101808.78;;;12.68
72278;BMP280;61204;49.980;8.358;2023-04-03T11:42:40;101800.78;;;12.79
72278;BMP280;61204;49.980;8.358;2023-04-03T11:45:15;101810.81;;;12.17
72278;BMP280;61204;49.980;8.358;2023-04-03T11:47:57;101810.91;;;10.91
72278;BMP280;61204;49.980;8.358;2023-04-03T12:05:53;101787.03;;;13.14
72278;BMP280;61204;49.980;8.358;2023-04-03T12:13:33;101781.00;;;13.08
72278;BMP280;61204;49.980;8.358;2023-04-03T12:16:01;101774.84;;;13.34
72278;BMP280;61204;49.980;8.358;2023-04-03T12:38:21;101747.94;;;12.98
72278;BMP280;61204;49.980;8.358;2023-04-03T12:44:19;101754.50;;;13.30
72278;BMP280;61204;49.980;8.358;2023-04-03T12:47:35;101748.25;;;14.20
72278;BMP280;61204;49.980;8.358;2023-04-03T12:50:03;101748.19;;;13.64
72278;BMP280;61204;49.980;8.358;2023-04-03T12:52:45;101734.84;;;13.16
72278;BMP280;61204;49.980;8.358;2023-04-03T12:55:20;101739.31;;;14.68
72278;BMP280;61204;49.980;8.358;2023-04-03T12:57:46;101743.25;;;14.45
72278;BMP280;61204;49.980;8.358;2023-04-03T13:00:19;101736.81;;;15.10
72278;BMP280;61204;49.980;8.358;2023-04-03T13:02:54;101743.72;;;15.40
72278;BMP280;61204;49.980;8.358;2023-04-03T13:05:21;101730.66;;;15.31
72278;BMP280;61204;49.980;8.358;2023-04-03T13:07:56;101737.84;;;14.38
72278;BMP280;61204;49.980;8.358;2023-04-03T13:10:27;101741.19;;;14.65
72278;BMP280;61204;49.980;8.358;2023-04-03T13:12:56;101739.09;;;15.95
72278;BMP280;61204;49.980;8.358;2023-04-03T13:15:43;101734.53;;;14.88
72278;BMP280;61204;49.980;8.358;2023-04-03T13:20:51;101745.56;;;14.49
72278;BMP280;61204;49.980;8.358;2023-04-03T13:23:19;101732.19;;;14.74
72278;BMP280;61204;49.980;8.358;2023-04-03T13:25:46;101737.47;;;15.40
72278;BMP280;61204;49.980;8.358;2023-04-03T13:28:15;101732.56;;;15.69
72278;BMP280;61204;49.980;8.358;2023-04-03T13:30:57;101737.13;;;15.55
72278;BMP280;61204;49.980;8.358;2023-04-03T13:36:43;101723.78;;;14.63
72278;BMP280;61204;49.980;8.358;2023-04-03T13:41:43;101729.44;;;14.84
72278;BMP280;61204;49.980;8.358;2023-04-03T13:47:37;101721.72;;;14.63
72278;BMP280;61204;49.980;8.358;2023-04-03T13:49:40;101723.16;;;14.93
72278;BMP280;61204;49.980;8.358;2023-04-03T13:52:23;101711.69;;;15.47
72278;BMP280;61204;49.980;8.358;2023-04-03T13:55:01;101715.44;;;15.21
72278;BMP280;61204;49.980;8.358;2023-04-03T13:57:50;101731.47;;;14.93
72278;BMP280;61204;49.980;8.358;2023-04-03T14:02:55;101724.78;;;14.86
72278;BMP280;61204;49.980;8.358;2023-04-03T14:05:22;101715.75;;;15.05
72278;BMP280;61204;49.980;8.358;2023-04-03T14:07:50;101709.50;;;14.85
72278;BMP280;61204;49.980;8.358;2023-04-03T14:10:16;101720.09;;;14.21
72278;BMP280;61204;49.980;8.358;2023-04-03T14:12:43;101696.44;;;12.56
72278;BMP280;61204;49.980;8.358;2023-04-03T14:15:17;101708.81;;;13.00
72278;BMP280;61204;49.980;8.358;2023-04-03T14:17:49;101713.84;;;12.94
72278;BMP280;61204;49.980;8.358;2023-04-03T14:20:20;101701.09;;;13.69
72278;BMP280;61204;49.980;8.358;2023-04-03T14:22:50;101701.94;;;14.09
72278;BMP280;61204;49.980;8.358;2023-04-03T14:25:17;101704.44;;;14.34
72278;BMP280;61204;49.980;8.358;2023-04-03T14:27:45;101700.38;;;14.44
72278;BMP280;61204;49.980;8.358;2023-04-03T14:30:18;101690.28;;;14.00
72278;BMP280;61204;49.980;8.358;2023-04-03T14:32:51;101700.16;;;13.57
72278;BMP280;61204;49.980;8.358;2023-04-03T14:35:17;101688.75;;;12.38
72278;BMP280;61204;49.980;8.358;2023-04-03T14:37:44;101689.47;;;12.73
72278;BMP280;61204;49.980;8.358;2023-04-03T14:40:12;101686.66;;;12.21
72278;BMP280;61204;49.980;8.358;2023-04-03T14:42:42;101691.56;;;12.05
72278;BMP280;61204;49.980;8.358;2023-04-03T14:45:09;101683.31;;;13.26
72278;BMP280;61204;49.980;8.358;2023-04-03T14:47:40;101685.81;;;13.68
72278;BMP280;61204;49.980;8.358;2023-04-03T14:50:16;101689.66;;;13.46
72278;BMP280;61204;49.980;8.358;2023-04-03T14:52:48;101693.59;;;13.89
72278;BMP280;61204;49.980;8.358;2023-04-03T14:55:17;101680.13;;;13.03
72278;BMP280;61204;49.980;8.358;2023-04-03T14:57:44;101684.91;;;13.56
72278;BMP280;61204;49.980;8.358;2023-04-03T15:00:15;101677.91;;;12.57
72278;BMP280;61204;49.980;8.358;2023-04-03T15:02:46;101678.06;;;12.59
72278;BMP280;61204;49.980;8.358;2023-04-03T15:05:13;101673.03;;;12.82
72278;BMP280;61204;49.980;8.358;2023-04-03T15:07:40;101666.09;;;11.80
72278;BMP280;61204;49.980;8.358;2023-04-03T15:12:43;101670.50;;;12.25
72278;BMP280;61204;49.980;8.358;2023-04-03T15:15:10;101677.69;;;12.03
72278;BMP280;61204;49.980;8.358;2023-04-03T15:17:36;101676.41;;;11.71
72278;BMP280;61204;49.980;8.358;2023-04-03T15:22:58;101677.88;;;12.74
72278;BMP280;61204;49.980;8.358;2023-04-03T15:25:29;101674.13;;;12.97
72278;BMP280;61204;49.980;8.358;2023-04-03T15:27:56;101674.50;;;12.32
72278;BMP280;61204;49.980;8.358;2023-04-03T15:30:22;101678.88;;;12.10
72278;BMP280;61204;49.980;8.358;2023-04-03T15:32:49;101665.84;;;11.35
72278;BMP280;61204;49.980;8.358;2023-04-03T15:35:15;101675.59;;;10.43
72278;BMP280;61204;49.980;8.358;2023-04-03T15:37:40;101671.66;;;10.99
72278;BMP280;61204;49.980;8.358;2023-04-03T15:40:06;101673.63;;;11.06
72278;BMP280;61204;49.980;8.358;2023-04-03T15:42:33;101674.25;;;10.97
72278;BMP280;61204;49.980;8.358;2023-04-03T15:44:59;101677.25;;;10.53
72278;BMP280;61204;49.980;8.358;2023-04-03T15:47:24;101671.78;;;10.53
72278;BMP280;61204;49.980;8.358;2023-04-03T15:49:52;101673.06;;;10.52
72278;BMP280;61204;49.980;8.358;2023-04-03T15:52:20;101675.63;;;10.35
72278;BMP280;61204;49.980;8.358;2023-04-03T15:54:45;101675.94;;;9.70
72278;BMP280;61204;49.980;8.358;2023-04-03T15:57:11;101672.50;;;10.08
72278;BMP280;61204;49.980;8.358;2023-04-03T15:59:36;101682.38;;;10.03
72278;BMP280;61204;49.980;8.358;2023-04-03T16:02:01;101675.06;;;10.29
72278;BMP280;61204;49.980;8.358;2023-04-03T16:04:31;101673.94;;;9.78
72278;BMP280;61204;49.980;8.358;2023-04-03T16:07:00;101673.03;;;9.84
72278;BMP280;61204;49.980;8.358;2023-04-03T16:09:28;101669.00;;;9.62
72278;BMP280;61204;49.980;8.358;2023-04-03T16:11:55;101670.06;;;9.59
72278;BMP280;61204;49.980;8.358;2023-04-03T16:14:21;101674.81;;;9.66
72278;BMP280;61204;49.980;8.358;2023-04-03T16:16:46;101675.09;;;9.39
72278;BMP280;61204;49.980;8.358;2023-04-03T16:19:12;101668.91;;;9.39
72278;BMP280;61204;49.980;8.358;2023-04-03T16:21:38;101669.59;;;9.24
72278;BMP280;61204;49.980;8.358;2023-04-03T16:24:03;101662.50;;;9.36